createdAt,value
2022-12-31T00:01:36.353Z,27.17
2022-12-31T00:03:36.323Z,40.17
2022-12-31T00:05:35.151Z,24.52
2022-12-31T00:09:33.236Z,21.90
2022-12-31T00:11:33.258Z,37.97
2022-12-31T00:13:31.506Z,41.05
2022-12-31T00:15:30.083Z,51.58
2022-12-31T00:17:28.394Z,30.45
2022-12-31T00:19:26.670Z,57.80
2022-12-31T00:21:24.731Z,254.15
2022-12-31T00:23:23.233Z,46.78
2022-12-31T00:25:21.509Z,38.63
2022-12-31T00:27:22.374Z,36.78
2022-12-31T00:29:20.612Z,34.72
2022-12-31T00:31:20.822Z,26.95
2022-12-31T00:33:19.086Z,30.65
2022-12-31T00:35:17.231Z,26.50
2022-12-31T00:37:15.562Z,38.95
2022-12-31T00:39:13.773Z,29.75
2022-12-31T00:41:12.467Z,24.50
2022-12-31T00:43:12.202Z,25.90
2022-12-31T00:45:11.144Z,31.92
2022-12-31T00:47:09.361Z,32.90
2022-12-31T00:49:07.665Z,32.60
2022-12-31T00:51:08.441Z,29.20
2022-12-31T00:53:06.637Z,21.08
2022-12-31T00:55:06.100Z,34.47
2022-12-31T00:57:04.396Z,28.88
2022-12-31T00:59:04.056Z,28.63
2022-12-31T01:01:09.917Z,29.00
2022-12-31T01:03:09.034Z,30.20
2022-12-31T01:05:08.886Z,29.88
2022-12-31T01:07:07.043Z,33.22
2022-12-31T01:09:06.552Z,28.40
2022-12-31T01:11:19.621Z,31.10
2022-12-31T01:13:18.007Z,22.77
2022-12-31T01:15:17.847Z,28.50
2022-12-31T01:17:17.304Z,21.75
2022-12-31T01:19:17.632Z,19.15
2022-12-31T01:21:17.008Z,29.98
2022-12-31T01:23:15.342Z,24.88
2022-12-31T01:25:13.520Z,35.60
2022-12-31T01:27:11.783Z,16.90
2022-12-31T01:29:11.101Z,23.35
2022-12-31T01:31:12.581Z,24.15
2022-12-31T01:33:10.875Z,28.77
2022-12-31T01:35:09.867Z,34.67
2022-12-31T01:37:08.113Z,32.38
2022-12-31T01:39:08.031Z,29.58
2022-12-31T01:41:06.475Z,29.90
2022-12-31T01:43:04.846Z,17.95
2022-12-31T01:45:03.421Z,23.60
2022-12-31T01:47:05.286Z,25.50
2022-12-31T01:49:10.308Z,23.98
2022-12-31T01:51:10.904Z,19.48
2022-12-31T01:53:12.113Z,25.42
2022-12-31T01:55:16.177Z,20.35
2022-12-31T01:57:15.184Z,19.75
2022-12-31T01:59:17.552Z,23.58
2022-12-31T02:01:21.683Z,14.63
2022-12-31T02:03:22.820Z,20.75
2022-12-31T02:05:27.334Z,23.05
2022-12-31T02:07:25.917Z,13.65
2022-12-31T02:09:24.365Z,19.45
2022-12-31T02:11:26.196Z,15.32
2022-12-31T02:13:24.669Z,19.70
2022-12-31T02:15:30.994Z,21.92
2022-12-31T02:17:36.711Z,17.25
2022-12-31T02:20:01.387Z,27.95
2022-12-31T02:22:04.691Z,19.45
2022-12-31T02:24:33.578Z,18.95
2022-12-31T02:26:55.881Z,21.80
2022-12-31T02:29:23.141Z,21.60
2022-12-31T02:31:27.770Z,16.63
2022-12-31T02:33:33.375Z,21.27
2022-12-31T02:35:35.020Z,18.45
2022-12-31T02:37:35.616Z,24.35
2022-12-31T02:39:35.337Z,26.73
2022-12-31T02:41:51.769Z,22.83
2022-12-31T02:43:49.889Z,20.20
2022-12-31T02:45:53.393Z,18.08
2022-12-31T02:48:05.059Z,28.73
2022-12-31T02:50:34.354Z,19.45
2022-12-31T02:52:45.430Z,26.25
2022-12-31T02:54:50.530Z,20.92
2022-12-31T02:56:59.368Z,25.27
2022-12-31T02:59:21.798Z,22.38
2022-12-31T03:01:44.032Z,17.73
2022-12-31T03:03:44.187Z,23.77
2022-12-31T03:05:45.279Z,22.13
2022-12-31T03:07:44.994Z,30.65
2022-12-31T03:09:43.294Z,25.48
2022-12-31T03:11:59.364Z,25.42
2022-12-31T03:13:57.543Z,20.77
2022-12-31T03:15:55.939Z,20.90
2022-12-31T03:17:57.812Z,27.60
2022-12-31T03:20:15.147Z,18.38
2022-12-31T03:22:28.671Z,12.43
2022-12-31T03:24:44.211Z,19.17
2022-12-31T03:26:42.602Z,15.80
2022-12-31T03:28:42.631Z,22.73
2022-12-31T03:30:43.284Z,17.98
2022-12-31T03:32:41.836Z,20.88
2022-12-31T03:34:40.168Z,18.63
2022-12-31T03:36:40.017Z,21.75
2022-12-31T03:38:38.800Z,28.95
2022-12-31T03:40:39.958Z,19.85
2022-12-31T03:42:38.516Z,23.88
2022-12-31T03:44:36.809Z,18.70
2022-12-31T03:46:35.028Z,18.33
2022-12-31T03:48:33.372Z,19.65
2022-12-31T03:50:31.813Z,17.02
2022-12-31T03:52:31.369Z,19.83
2022-12-31T03:54:29.832Z,17.83
2022-12-31T03:56:27.887Z,17.45
2022-12-31T03:58:26.171Z,16.67
2022-12-31T04:00:24.398Z,17.38
2022-12-31T04:02:28.582Z,16.27
2022-12-31T04:04:27.660Z,18.20
2022-12-31T04:06:26.538Z,16.75
2022-12-31T04:08:26.489Z,16.15
2022-12-31T04:10:24.637Z,17.75
2022-12-31T04:12:22.972Z,23.25
2022-12-31T04:14:21.258Z,17.58
2022-12-31T04:16:19.468Z,20.70
2022-12-31T04:18:17.660Z,20.65
2022-12-31T04:20:16.594Z,13.63
2022-12-31T04:22:14.819Z,15.02
2022-12-31T04:24:14.499Z,19.80
2022-12-31T04:26:12.635Z,16.00
2022-12-31T04:28:11.032Z,19.90
2022-12-31T04:30:10.422Z,13.32
2022-12-31T04:32:09.532Z,15.63
2022-12-31T04:34:07.824Z,15.95
2022-12-31T04:36:07.819Z,21.02
2022-12-31T04:38:06.741Z,15.93
2022-12-31T04:40:07.638Z,15.45
2022-12-31T04:42:05.848Z,14.95
2022-12-31T04:44:04.286Z,19.88
2022-12-31T04:46:02.480Z,18.88
2022-12-31T04:48:00.649Z,19.92
2022-12-31T04:49:58.845Z,19.33
2022-12-31T04:51:56.985Z,32.15
2022-12-31T04:53:55.202Z,20.63
2022-12-31T04:55:54.855Z,19.90
2022-12-31T04:57:53.017Z,24.52
2022-12-31T04:59:51.270Z,19.20
2022-12-31T05:01:49.668Z,15.60
2022-12-31T05:03:48.123Z,12.27
2022-12-31T05:05:46.465Z,18.40
2022-12-31T05:07:44.622Z,14.80
2022-12-31T05:09:44.677Z,26.30
2022-12-31T05:11:44.301Z,26.15
2022-12-31T05:13:44.254Z,20.10
2022-12-31T05:15:43.094Z,25.25
2022-12-31T05:17:41.389Z,14.70
2022-12-31T05:19:39.655Z,22.38
2022-12-31T05:21:37.841Z,23.13
2022-12-31T05:23:35.917Z,21.30
2022-12-31T05:25:34.532Z,20.42
2022-12-31T05:27:34.064Z,14.07
2022-12-31T05:29:32.401Z,27.52
2022-12-31T05:31:30.660Z,13.88
2022-12-31T05:33:28.846Z,23.80
2022-12-31T05:35:27.102Z,19.55
2022-12-31T05:37:25.413Z,23.85
2022-12-31T05:39:23.529Z,17.30
2022-12-31T05:41:22.826Z,23.73
2022-12-31T05:43:22.487Z,27.52
2022-12-31T05:45:25.251Z,21.90
2022-12-31T05:47:27.115Z,16.00
2022-12-31T05:49:25.481Z,22.88
2022-12-31T05:51:23.670Z,23.10
2022-12-31T05:53:22.009Z,15.95
2022-12-31T05:55:20.327Z,28.27
2022-12-31T05:57:18.573Z,18.90
2022-12-31T05:59:18.068Z,29.77
2022-12-31T06:01:16.372Z,32.58
2022-12-31T06:03:14.777Z,25.33
2022-12-31T06:05:13.049Z,27.13
2022-12-31T06:07:11.262Z,24.15
2022-12-31T06:09:09.420Z,20.00
2022-12-31T06:11:07.674Z,23.05
2022-12-31T06:13:05.924Z,15.43
2022-12-31T06:15:07.280Z,33.25
2022-12-31T06:17:05.495Z,19.30
2022-12-31T06:19:03.991Z,18.08
2022-12-31T06:21:02.454Z,27.35
2022-12-31T06:23:01.177Z,23.20
2022-12-31T06:24:59.411Z,24.30
2022-12-31T06:26:57.779Z,29.92
2022-12-31T06:28:55.927Z,29.45
2022-12-31T06:31:00.727Z,30.42
2022-12-31T06:32:58.939Z,18.83
2022-12-31T06:34:57.021Z,41.47
2022-12-31T06:36:55.297Z,39.85
2022-12-31T06:38:53.544Z,25.15
2022-12-31T06:40:51.911Z,27.45
2022-12-31T06:42:54.626Z,30.55
2022-12-31T06:44:55.936Z,22.92
2022-12-31T06:46:55.703Z,27.38
2022-12-31T06:48:54.031Z,30.60
2022-12-31T06:50:52.336Z,20.77
2022-12-31T06:52:50.406Z,25.17
2022-12-31T06:54:49.410Z,32.25
2022-12-31T06:56:48.215Z,34.92
2022-12-31T06:58:47.214Z,19.85
2022-12-31T07:00:55.091Z,29.40
2022-12-31T07:03:10.923Z,28.00
2022-12-31T07:05:20.864Z,28.65
2022-12-31T07:07:27.351Z,26.80
2022-12-31T07:09:34.393Z,35.72
2022-12-31T07:11:40.535Z,21.00
2022-12-31T07:14:08.650Z,22.70
2022-12-31T07:16:21.692Z,28.27
2022-12-31T07:18:31.540Z,21.83
2022-12-31T07:20:31.189Z,26.08
2022-12-31T07:22:30.024Z,24.17
2022-12-31T07:24:29.247Z,29.05
2022-12-31T07:26:43.851Z,26.98
2022-12-31T07:28:54.767Z,25.33
2022-12-31T07:31:02.906Z,32.15
2022-12-31T07:33:22.069Z,51.35
2022-12-31T07:35:35.325Z,34.60
2022-12-31T07:37:44.856Z,29.17
2022-12-31T07:39:55.532Z,35.65
2022-12-31T07:42:00.865Z,34.65
2022-12-31T07:44:08.527Z,27.73
2022-12-31T07:46:14.416Z,30.38
2022-12-31T07:48:23.526Z,37.08
2022-12-31T07:50:23.727Z,39.47
2022-12-31T07:52:22.835Z,32.03
2022-12-31T07:54:21.273Z,24.95
2022-12-31T07:56:19.544Z,29.42
2022-12-31T07:58:23.067Z,32.92
2022-12-31T08:00:22.011Z,30.20
2022-12-31T08:02:35.322Z,56.58
2022-12-31T08:04:43.732Z,31.85
2022-12-31T08:06:51.841Z,38.50
2022-12-31T08:09:00.215Z,26.75
2022-12-31T08:11:09.994Z,34.92
2022-12-31T08:13:12.263Z,26.92
2022-12-31T08:15:15.535Z,72.00
2022-12-31T08:17:15.439Z,71.28
2022-12-31T08:19:25.963Z,79.70
2022-12-31T08:21:37.105Z,107.90
2022-12-31T08:23:43.825Z,73.43
2022-12-31T08:26:00.588Z,51.83
2022-12-31T08:28:09.075Z,40.67
2022-12-31T08:30:11.309Z,44.50
2022-12-31T08:32:17.241Z,39.95
2022-12-31T08:34:24.193Z,39.05
2022-12-31T08:36:29.713Z,31.20
2022-12-31T08:38:34.931Z,46.30
2022-12-31T08:40:44.982Z,32.15
2022-12-31T08:42:52.709Z,32.42
2022-12-31T08:45:01.787Z,22.88
2022-12-31T08:47:10.395Z,35.78
2022-12-31T08:49:10.925Z,31.80
2022-12-31T08:51:15.675Z,43.63
2022-12-31T08:53:14.238Z,30.65
2022-12-31T08:55:16.373Z,27.00
2022-12-31T08:57:33.720Z,36.38
2022-12-31T08:59:47.035Z,33.70
2022-12-31T09:02:02.337Z,22.90
2022-12-31T09:04:12.759Z,28.30
2022-12-31T09:06:20.375Z,26.10
2022-12-31T09:08:26.021Z,32.57
2022-12-31T09:10:30.024Z,25.50
2022-12-31T09:12:39.217Z,17.30
2022-12-31T09:14:48.300Z,26.53
2022-12-31T09:16:57.308Z,26.70
2022-12-31T09:18:55.543Z,40.40
2022-12-31T09:20:59.057Z,29.67
2022-12-31T09:24:57.241Z,19.97
2022-12-31T09:27:05.945Z,18.17
2022-12-31T09:29:11.562Z,30.90
2022-12-31T09:31:14.747Z,21.87
2022-12-31T09:33:17.942Z,17.45
2022-12-31T09:35:23.816Z,24.00
2022-12-31T09:37:30.302Z,23.27
2022-12-31T09:39:38.342Z,28.17
2022-12-31T09:42:05.832Z,21.77
2022-12-31T09:45:00.151Z,20.10
2022-12-31T09:47:39.114Z,16.77
2022-12-31T09:50:13.933Z,23.83
2022-12-31T09:52:22.359Z,18.95
2022-12-31T09:54:34.904Z,23.27
2022-12-31T09:56:37.585Z,26.30
2022-12-31T09:58:46.002Z,13.10
2022-12-31T10:00:52.860Z,16.13
2022-12-31T10:03:16.675Z,15.87
2022-12-31T10:05:36.836Z,16.43
2022-12-31T10:07:52.816Z,9.30
2022-12-31T10:10:00.990Z,18.23
2022-12-31T10:12:28.371Z,12.90
2022-12-31T10:14:47.391Z,12.70
2022-12-31T10:17:03.360Z,16.37
2022-12-31T10:19:47.332Z,18.10
2022-12-31T10:21:54.878Z,9.93
2022-12-31T10:24:21.338Z,11.73
2022-12-31T10:26:38.115Z,10.83
2022-12-31T10:28:47.830Z,47.83
2022-12-31T10:30:54.962Z,25.63
2022-12-31T10:33:08.331Z,12.53
2022-12-31T10:35:21.135Z,14.03
2022-12-31T10:37:24.374Z,14.93
2022-12-31T10:39:34.470Z,11.48
2022-12-31T10:41:58.524Z,10.47
2022-12-31T10:44:33.034Z,9.55
2022-12-31T10:46:48.912Z,11.90
2022-12-31T10:49:22.395Z,10.93
2022-12-31T10:51:40.384Z,14.87
2022-12-31T10:54:30.360Z,7.90
2022-12-31T10:56:54.641Z,7.07
2022-12-31T10:59:24.114Z,8.10
2022-12-31T11:01:33.871Z,9.53
2022-12-31T11:04:00.052Z,9.67
2022-12-31T11:06:41.839Z,11.57
2022-12-31T11:09:19.219Z,13.37
2022-12-31T11:11:28.527Z,36.50
2022-12-31T11:13:57.394Z,13.07
2022-12-31T11:16:09.619Z,12.93
2022-12-31T11:18:19.065Z,27.77
2022-12-31T11:20:32.981Z,18.93
2022-12-31T11:22:49.153Z,23.02
2022-12-31T11:25:04.495Z,28.50
2022-12-31T11:27:18.981Z,18.10
2022-12-31T11:31:43.302Z,28.20
2022-12-31T11:33:59.271Z,14.10
2022-12-31T11:36:10.385Z,14.43
2022-12-31T11:38:23.933Z,21.90
2022-12-31T11:40:48.515Z,13.93
2022-12-31T11:42:56.503Z,11.70
2022-12-31T11:45:00.872Z,15.27
2022-12-31T11:47:14.174Z,13.77
2022-12-31T11:49:40.667Z,16.10
2022-12-31T11:52:03.968Z,12.98
2022-12-31T11:54:36.150Z,17.17
2022-12-31T11:56:38.584Z,13.55
2022-12-31T11:58:36.960Z,20.48
2022-12-31T12:00:36.223Z,15.95
2022-12-31T12:02:37.579Z,23.60
2022-12-31T12:04:36.077Z,21.15
2022-12-31T12:06:34.486Z,16.65
2022-12-31T12:08:34.924Z,16.25
2022-12-31T12:10:39.668Z,21.45
2022-12-31T12:12:41.337Z,18.17
2022-12-31T12:14:41.928Z,17.45
2022-12-31T12:16:40.277Z,13.98
2022-12-31T12:18:43.618Z,16.83
2022-12-31T12:20:45.298Z,17.90
2022-12-31T12:22:51.492Z,26.60
2022-12-31T12:24:55.285Z,14.77
2022-12-31T12:26:55.353Z,13.95
2022-12-31T12:28:53.943Z,20.52
2022-12-31T12:33:18.192Z,12.32
2022-12-31T12:35:18.472Z,10.57
2022-12-31T12:37:32.400Z,24.42
2022-12-31T12:39:32.624Z,21.02
2022-12-31T12:41:31.179Z,10.82
2022-12-31T12:43:32.378Z,13.88
2022-12-31T12:45:40.568Z,9.80
2022-12-31T12:47:39.025Z,12.30
2022-12-31T12:49:40.892Z,14.60
2022-12-31T12:51:55.806Z,10.60
2022-12-31T12:54:02.812Z,11.80
2022-12-31T12:56:13.332Z,14.90
2022-12-31T12:58:27.850Z,16.80
2022-12-31T13:00:32.023Z,111.20
2022-12-31T13:03:08.330Z,23.02
2022-12-31T13:05:27.661Z,22.48
2022-12-31T13:07:42.219Z,53.85
2022-12-31T13:09:54.131Z,16.27
2022-12-31T13:12:07.721Z,11.55
2022-12-31T13:14:18.733Z,13.70
2022-12-31T13:16:25.547Z,9.65
2022-12-31T13:18:38.565Z,14.18
2022-12-31T13:20:42.549Z,14.48
2022-12-31T13:22:45.975Z,12.20
2022-12-31T13:24:52.964Z,9.55
2022-12-31T13:26:58.636Z,13.48
2022-12-31T13:28:58.116Z,11.25
2022-12-31T13:31:06.530Z,7.22
2022-12-31T13:33:15.856Z,9.50
2022-12-31T13:35:26.618Z,12.52
2022-12-31T13:37:53.690Z,11.63
2022-12-31T13:39:57.843Z,10.18
2022-12-31T13:42:02.333Z,9.85
2022-12-31T13:44:10.378Z,10.45
2022-12-31T13:46:19.798Z,9.50
2022-12-31T13:48:26.116Z,5.30
2022-12-31T13:50:29.666Z,5.47
2022-12-31T13:52:35.794Z,7.32
2022-12-31T13:54:42.658Z,4.35
2022-12-31T13:56:43.823Z,6.20
2022-12-31T13:58:47.084Z,6.13
2022-12-31T14:00:49.068Z,7.20
2022-12-31T14:02:55.060Z,15.82
2022-12-31T14:05:00.454Z,10.50
2022-12-31T14:07:04.383Z,10.90
2022-12-31T14:09:03.013Z,10.50
2022-12-31T14:11:08.022Z,12.27
2022-12-31T14:13:20.857Z,10.20
2022-12-31T14:15:24.955Z,15.75
2022-12-31T14:17:32.976Z,14.55
2022-12-31T14:19:46.391Z,20.77
2022-12-31T14:21:50.223Z,14.95
2022-12-31T14:23:54.375Z,22.20
2022-12-31T14:25:57.072Z,16.40
2022-12-31T14:27:57.587Z,10.15
2022-12-31T14:30:00.189Z,13.05
2022-12-31T14:32:20.312Z,11.43
2022-12-31T14:34:27.007Z,18.52
2022-12-31T14:36:40.647Z,14.38
2022-12-31T14:38:52.571Z,25.50
2022-12-31T14:41:03.955Z,23.48
2022-12-31T14:43:13.304Z,14.45
2022-12-31T14:45:29.028Z,10.98
2022-12-31T14:47:38.697Z,15.10
2022-12-31T14:49:47.858Z,14.80
2022-12-31T14:51:46.308Z,7.53
2022-12-31T14:53:56.829Z,12.88
2022-12-31T14:55:59.933Z,14.88
2022-12-31T14:58:27.329Z,11.88
2022-12-31T15:00:30.581Z,18.67
2022-12-31T15:02:31.004Z,17.33
2022-12-31T15:04:42.955Z,21.02
2022-12-31T15:06:59.575Z,29.15
2022-12-31T15:09:08.565Z,28.50
2022-12-31T15:11:19.321Z,26.58
2022-12-31T15:13:29.130Z,57.25
2022-12-31T15:15:50.165Z,25.30
2022-12-31T15:18:02.832Z,21.30
2022-12-31T15:20:20.331Z,17.73
2022-12-31T15:22:36.104Z,17.50
2022-12-31T15:24:35.925Z,14.65
2022-12-31T15:26:50.998Z,27.27
2022-12-31T15:28:58.387Z,25.05
2022-12-31T15:31:02.548Z,20.25
2022-12-31T15:33:04.521Z,17.40
2022-12-31T15:35:05.017Z,23.90
2022-12-31T15:37:06.572Z,19.02
2022-12-31T15:39:25.897Z,18.40
2022-12-31T15:41:37.593Z,19.92
2022-12-31T15:43:45.143Z,17.77
2022-12-31T15:45:44.285Z,17.13
2022-12-31T15:47:47.112Z,15.98
2022-12-31T15:49:47.993Z,15.13
2022-12-31T15:51:49.580Z,23.70
2022-12-31T15:53:53.202Z,25.08
2022-12-31T15:55:54.947Z,18.70
2022-12-31T15:57:57.885Z,31.08
2022-12-31T15:59:59.501Z,14.13
2022-12-31T16:01:58.511Z,31.52
2022-12-31T16:03:59.079Z,11.98
2022-12-31T16:06:02.029Z,17.25
2022-12-31T16:08:01.213Z,13.05
2022-12-31T16:10:03.845Z,11.77
2022-12-31T16:12:03.745Z,22.10
2022-12-31T16:14:04.786Z,22.88
2022-12-31T16:16:19.911Z,16.00
2022-12-31T16:18:22.741Z,15.20
2022-12-31T16:20:23.819Z,13.48
2022-12-31T16:22:27.238Z,20.52
2022-12-31T16:24:29.110Z,15.50
2022-12-31T16:26:33.503Z,19.33
2022-12-31T16:30:35.862Z,21.00
2022-12-31T16:32:36.486Z,12.48
2022-12-31T16:34:38.519Z,14.88
2022-12-31T16:36:36.808Z,12.90
2022-12-31T16:38:35.922Z,11.25
2022-12-31T16:40:34.339Z,10.63
2022-12-31T16:42:32.630Z,11.98
2022-12-31T16:44:31.972Z,8.60
2022-12-31T16:46:33.380Z,10.48
2022-12-31T16:48:31.688Z,15.95
2022-12-31T16:50:30.673Z,16.55
2022-12-31T16:52:33.222Z,11.55
2022-12-31T16:54:35.579Z,12.25
2022-12-31T16:56:37.663Z,28.65
2022-12-31T16:58:38.433Z,14.52
2022-12-31T17:00:37.837Z,48.30
2022-12-31T17:02:41.819Z,21.88
2022-12-31T17:04:47.000Z,15.65
2022-12-31T17:06:50.964Z,19.40
2022-12-31T17:09:03.603Z,13.73
2022-12-31T17:11:04.695Z,22.23
2022-12-31T17:15:27.041Z,20.92
2022-12-31T17:17:28.708Z,17.52
2022-12-31T17:19:38.880Z,22.25
2022-12-31T17:21:37.157Z,23.45
2022-12-31T17:23:37.825Z,30.60
2022-12-31T17:25:38.233Z,58.53
2022-12-31T17:27:37.632Z,68.63
2022-12-31T17:29:36.591Z,78.50
2022-12-31T17:31:36.973Z,51.22
2022-12-31T17:33:35.356Z,61.72
2022-12-31T17:35:36.809Z,51.10
2022-12-31T17:37:35.770Z,39.22
2022-12-31T17:39:48.236Z,41.53
2022-12-31T17:41:47.679Z,40.58
2022-12-31T17:43:46.203Z,47.13
2022-12-31T17:45:47.315Z,34.25
2022-12-31T17:47:51.025Z,30.20
2022-12-31T17:49:49.297Z,39.75
2022-12-31T17:51:49.202Z,47.08
2022-12-31T17:53:47.557Z,37.00
2022-12-31T17:55:48.281Z,42.42
2022-12-31T17:57:51.866Z,88.65
2022-12-31T17:59:50.163Z,103.20
2022-12-31T18:01:49.420Z,66.07
2022-12-31T18:03:48.987Z,56.38
2022-12-31T18:05:47.472Z,45.60
2022-12-31T18:07:47.225Z,74.07
2022-12-31T18:09:45.422Z,80.25
2022-12-31T18:11:43.801Z,50.20
2022-12-31T18:13:41.995Z,55.60
2022-12-31T18:15:41.491Z,73.28
2022-12-31T18:17:39.767Z,66.78
2022-12-31T18:20:03.616Z,62.67
2022-12-31T18:22:00.422Z,53.95
2022-12-31T18:25:58.223Z,60.47
2022-12-31T18:27:56.369Z,46.10
2022-12-31T18:29:59.106Z,70.15
2022-12-31T18:32:02.455Z,57.35
2022-12-31T18:34:00.817Z,47.10
2022-12-31T18:36:14.494Z,52.65
2022-12-31T18:38:14.788Z,54.58
2022-12-31T18:40:15.292Z,51.15
2022-12-31T18:42:14.898Z,49.40
2022-12-31T18:44:14.945Z,45.15
2022-12-31T18:46:14.268Z,46.63
2022-12-31T18:48:13.407Z,67.30
2022-12-31T18:50:15.139Z,72.18
2022-12-31T18:52:14.570Z,67.78
2022-12-31T18:54:17.869Z,47.50
2022-12-31T18:56:19.605Z,46.28
2022-12-31T18:58:17.810Z,48.08
2022-12-31T19:00:16.696Z,51.15
2022-12-31T19:02:19.330Z,52.88
2022-12-31T19:04:26.504Z,73.80
2022-12-31T19:06:26.226Z,73.65
2022-12-31T19:08:24.897Z,62.05
2022-12-31T19:10:23.404Z,51.97
2022-12-31T19:12:23.195Z,65.47
2022-12-31T19:14:24.777Z,70.53
2022-12-31T19:16:22.998Z,68.85
2022-12-31T19:18:21.355Z,60.13
2022-12-31T19:20:26.463Z,70.22
2022-12-31T19:22:24.925Z,54.40
2022-12-31T19:24:26.750Z,57.97
2022-12-31T19:26:25.020Z,57.00
2022-12-31T19:28:26.989Z,59.53
2022-12-31T19:30:27.565Z,46.42
2022-12-31T19:32:25.740Z,63.67
2022-12-31T19:34:23.921Z,65.45
2022-12-31T19:36:22.337Z,60.75
2022-12-31T19:38:23.146Z,59.45
2022-12-31T19:40:23.956Z,54.03
2022-12-31T19:42:22.237Z,55.22
2022-12-31T19:44:21.993Z,72.35
2022-12-31T19:46:20.631Z,54.08
2022-12-31T19:48:25.798Z,67.72
2022-12-31T19:50:29.447Z,57.15
2022-12-31T19:52:27.713Z,66.50
2022-12-31T19:54:25.983Z,70.72
2022-12-31T19:56:24.148Z,60.15
2022-12-31T19:58:25.682Z,76.45
2022-12-31T20:00:25.418Z,68.22
2022-12-31T20:02:23.794Z,66.25
2022-12-31T20:04:22.564Z,73.18
2022-12-31T20:06:20.931Z,56.92
2022-12-31T20:08:20.426Z,74.80
2022-12-31T20:10:18.737Z,77.00
2022-12-31T20:12:17.318Z,98.28
2022-12-31T20:14:15.652Z,98.97
2022-12-31T20:16:17.140Z,96.70
2022-12-31T20:18:21.028Z,63.30
2022-12-31T20:20:19.205Z,92.57
2022-12-31T20:22:17.600Z,93.35
2022-12-31T20:24:15.950Z,85.93
2022-12-31T20:26:14.232Z,70.45
2022-12-31T20:28:12.631Z,76.43
2022-12-31T20:30:12.767Z,63.78
2022-12-31T20:32:12.264Z,60.47
2022-12-31T20:34:11.615Z,64.75
2022-12-31T20:36:11.957Z,63.80
2022-12-31T20:38:10.725Z,49.55
2022-12-31T20:40:10.714Z,47.65
2022-12-31T20:42:08.907Z,46.80
2022-12-31T20:44:07.248Z,66.35
2022-12-31T20:46:14.423Z,66.60
2022-12-31T20:48:14.732Z,48.00
2022-12-31T20:50:13.104Z,66.20
2022-12-31T20:52:11.415Z,64.00
2022-12-31T20:54:11.714Z,63.72
2022-12-31T20:56:10.494Z,78.00
2022-12-31T20:58:08.658Z,51.10
2022-12-31T21:00:12.328Z,53.03
2022-12-31T21:02:29.563Z,58.15
2022-12-31T21:04:35.094Z,74.32
2022-12-31T21:06:34.252Z,55.22
2022-12-31T21:08:35.031Z,68.47
2022-12-31T21:10:34.688Z,59.85
2022-12-31T21:12:43.886Z,76.85
2022-12-31T21:14:44.868Z,60.97
2022-12-31T21:16:43.307Z,57.78
2022-12-31T21:18:41.515Z,60.38
2022-12-31T21:20:41.064Z,63.30
2022-12-31T21:22:39.536Z,61.17
2022-12-31T21:24:39.243Z,75.97
2022-12-31T21:26:37.909Z,55.33
2022-12-31T21:28:36.158Z,64.45
2022-12-31T21:30:34.773Z,56.80
2022-12-31T21:32:32.906Z,52.97
2022-12-31T21:34:31.156Z,56.58
2022-12-31T21:36:30.634Z,58.78
2022-12-31T21:38:29.885Z,52.47
2022-12-31T21:40:28.210Z,58.92
2022-12-31T21:42:26.400Z,43.08
2022-12-31T21:44:26.103Z,50.03
2022-12-31T21:46:24.507Z,44.22
2022-12-31T21:48:22.123Z,49.10
2022-12-31T21:50:20.506Z,53.22
2022-12-31T21:52:30.802Z,71.47
2022-12-31T21:54:46.276Z,59.95
2022-12-31T21:56:44.479Z,53.63
2022-12-31T21:58:44.309Z,53.75
2022-12-31T22:01:00.043Z,58.05
2022-12-31T22:03:16.163Z,65.88
2022-12-31T22:05:21.412Z,67.68
2022-12-31T22:07:24.578Z,82.78
2022-12-31T22:09:22.907Z,73.60
2022-12-31T22:11:22.670Z,79.90
2022-12-31T22:13:20.933Z,78.20
2022-12-31T22:15:19.209Z,77.68
2022-12-31T22:17:17.513Z,87.18
2022-12-31T22:19:15.756Z,76.63
2022-12-31T22:21:19.385Z,76.13
2022-12-31T22:23:19.691Z,72.50
2022-12-31T22:25:17.997Z,78.50
2022-12-31T22:27:28.816Z,103.53
2022-12-31T22:29:28.069Z,92.00
2022-12-31T22:31:29.032Z,129.32
2022-12-31T22:33:27.393Z,75.13
2022-12-31T22:35:25.897Z,76.80
2022-12-31T22:39:45.076Z,70.45
2022-12-31T22:41:43.605Z,83.18
2022-12-31T22:43:44.070Z,71.60
2022-12-31T22:45:42.175Z,78.10
2022-12-31T22:47:40.398Z,93.10
2022-12-31T22:49:38.552Z,91.75
2022-12-31T22:51:56.859Z,150.73
2022-12-31T22:53:55.049Z,141.75
2022-12-31T22:55:56.508Z,133.85
2022-12-31T22:57:54.866Z,117.82
2022-12-31T22:59:53.093Z,113.03
2022-12-31T23:01:51.452Z,105.45
2022-12-31T23:03:51.481Z,110.38
2022-12-31T23:05:51.492Z,99.07
2022-12-31T23:07:49.933Z,85.22
2022-12-31T23:10:05.312Z,115.18
2022-12-31T23:12:07.084Z,93.25
2022-12-31T23:14:23.344Z,101.70
2022-12-31T23:16:38.921Z,93.20
2022-12-31T23:18:54.339Z,98.97
2022-12-31T23:21:10.053Z,89.75
2022-12-31T23:23:10.053Z,122.60
2022-12-31T23:25:09.047Z,103.28
2022-12-31T23:27:09.673Z,85.75
2022-12-31T23:29:07.999Z,115.95
2022-12-31T23:31:07.360Z,113.10
2022-12-31T23:33:05.807Z,105.78
2022-12-31T23:35:09.558Z,111.05
2022-12-31T23:37:08.322Z,101.60
2022-12-31T23:39:06.679Z,91.22
2022-12-31T23:41:13.136Z,85.40
2022-12-31T23:43:20.907Z,107.55
2022-12-31T23:45:19.100Z,93.47
2022-12-31T23:47:17.345Z,121.82
2022-12-31T23:49:15.586Z,86.07
2022-12-31T23:51:13.709Z,101.68
2022-12-31T23:53:11.948Z,114.25
2022-12-31T23:55:10.518Z,86.47
2022-12-31T23:57:08.774Z,122.50
2022-12-31T23:59:08.526Z,133.18
